createdAt,value
2022-09-12T00:03:28.368Z,5.10
2022-09-12T00:08:31.193Z,5.90
2022-09-12T00:13:37.320Z,5.10
2022-09-12T00:18:47.063Z,6.00
2022-09-12T00:23:50.912Z,5.80
2022-09-12T00:28:54.204Z,9.00
2022-09-12T00:34:00.851Z,8.30
2022-09-12T00:39:04.894Z,5.00
2022-09-12T00:44:10.670Z,6.50
2022-09-12T00:49:24.300Z,6.30
2022-09-12T00:54:32.928Z,7.30
2022-09-12T00:59:51.345Z,6.30
2022-09-12T01:04:54.395Z,8.00
2022-09-12T01:09:57.589Z,4.70
2022-09-12T01:15:01.006Z,7.20
2022-09-12T01:20:20.713Z,8.40
2022-09-12T01:25:50.396Z,8.30
2022-09-12T01:30:54.416Z,5.90
2022-09-12T01:36:13.841Z,5.70
2022-09-12T01:41:25.780Z,5.10
2022-09-12T01:46:44.028Z,9.20
2022-09-12T01:51:58.989Z,5.70
2022-09-12T01:57:08.958Z,5.60
2022-09-12T02:02:40.837Z,9.10
2022-09-12T02:07:49.648Z,4.30
2022-09-12T02:13:08.593Z,6.00
2022-09-12T02:18:18.766Z,6.50
2022-09-12T02:23:26.655Z,5.40
2022-09-12T02:28:40.638Z,4.70
2022-09-12T02:34:02.161Z,5.80
2022-09-12T02:39:05.136Z,5.60
2022-09-12T02:44:07.979Z,5.10
2022-09-12T02:49:11.067Z,5.40
2022-09-12T02:54:16.635Z,6.20
2022-09-12T02:59:23.628Z,7.20
2022-09-12T03:04:36.157Z,5.40
2022-09-12T03:10:03.762Z,6.50
2022-09-12T03:15:27.799Z,6.40
2022-09-12T03:20:50.988Z,4.90
2022-09-12T03:26:07.519Z,7.30
2022-09-12T03:31:15.800Z,5.30
2022-09-12T03:36:25.643Z,4.70
2022-09-12T03:41:29.442Z,4.80
2022-09-12T03:46:32.992Z,5.50
2022-09-12T03:51:36.106Z,4.40
2022-09-12T03:56:40.536Z,5.30
2022-09-12T04:01:43.232Z,6.30
2022-09-12T04:06:45.989Z,6.10
2022-09-12T04:11:48.717Z,4.90
2022-09-12T04:16:51.540Z,5.70
2022-09-12T04:21:54.377Z,5.60
2022-09-12T04:26:57.318Z,7.70
2022-09-12T04:32:00.082Z,4.60
2022-09-12T04:37:03.392Z,6.40
2022-09-12T04:42:06.374Z,4.50
2022-09-12T04:47:09.150Z,5.20
2022-09-12T04:52:11.922Z,4.10
2022-09-12T04:57:14.648Z,5.90
2022-09-12T05:02:18.260Z,6.80
2022-09-12T05:07:21.103Z,5.50
2022-09-12T05:12:24.016Z,7.20
2022-09-12T05:17:29.782Z,7.90
2022-09-12T05:22:34.620Z,5.90
2022-09-12T05:27:37.361Z,4.30
2022-09-12T05:32:40.091Z,5.80
2022-09-12T05:37:43.417Z,6.20
2022-09-12T05:42:46.248Z,5.40
2022-09-12T05:47:49.976Z,8.20
2022-09-12T05:52:52.766Z,5.90
2022-09-12T05:57:56.184Z,9.60
2022-09-12T06:03:01.496Z,5.80
2022-09-12T06:08:07.179Z,9.30
2022-09-12T06:13:09.990Z,10.60
2022-09-12T06:18:13.163Z,22.20
2022-09-12T06:23:16.044Z,12.00
2022-09-12T06:28:21.288Z,10.10
2022-09-12T06:33:24.174Z,10.10
2022-09-12T06:38:26.947Z,8.70
2022-09-12T06:43:29.807Z,7.90
2022-09-12T06:48:32.656Z,7.50
2022-09-12T06:53:40.635Z,4.20
2022-09-12T06:58:43.876Z,4.60
2022-09-12T07:03:55.927Z,5.40
2022-09-12T07:09:00.234Z,6.30
2022-09-12T07:14:06.370Z,6.80
2022-09-12T07:19:12.080Z,6.00
2022-09-12T07:24:15.019Z,5.70
2022-09-12T07:29:36.872Z,6.60
2022-09-12T07:34:40.956Z,4.00
2022-09-12T07:39:43.792Z,4.80
2022-09-12T07:44:49.101Z,8.00
2022-09-12T07:49:52.767Z,5.90
2022-09-12T07:54:56.793Z,3.90
2022-09-12T08:00:04.092Z,4.90
2022-09-12T08:05:07.643Z,4.70
2022-09-12T08:10:10.719Z,6.00
2022-09-12T08:15:15.487Z,4.20
2022-09-12T08:20:24.281Z,7.50
2022-09-12T08:25:29.619Z,4.30
2022-09-12T08:30:32.537Z,3.90
2022-09-12T08:35:39.762Z,6.00
2022-09-12T08:40:59.324Z,3.30
2022-09-12T08:46:09.165Z,4.50
2022-09-12T08:51:16.083Z,4.20
2022-09-12T08:56:19.456Z,4.80
2022-09-12T09:01:41.536Z,5.00
2022-09-12T09:07:01.343Z,4.80
2022-09-12T09:12:17.913Z,3.90
2022-09-12T09:17:33.954Z,5.10
2022-09-12T09:22:42.734Z,12.60
2022-09-12T09:28:13.765Z,9.70
2022-09-12T09:33:23.863Z,5.40
2022-09-12T09:38:48.623Z,6.70
2022-09-12T09:43:52.059Z,5.10
2022-09-12T09:49:02.807Z,4.80
2022-09-12T09:54:11.388Z,4.30
2022-09-12T09:59:27.983Z,3.30
2022-09-12T10:04:39.240Z,8.50
2022-09-12T10:10:08.136Z,4.10
2022-09-12T10:15:22.000Z,6.20
2022-09-12T10:20:44.349Z,5.80
2022-09-12T10:25:55.225Z,6.10
2022-09-12T10:31:03.370Z,5.50
2022-09-12T10:36:07.995Z,5.00
2022-09-12T10:41:12.402Z,3.00
2022-09-12T10:46:18.552Z,4.50
2022-09-12T10:51:24.439Z,7.30
2022-09-12T10:56:39.580Z,4.50
2022-09-12T11:01:46.073Z,6.30
2022-09-12T11:06:58.062Z,3.10
2022-09-12T11:12:14.583Z,3.70
2022-09-12T11:17:26.142Z,6.30
2022-09-12T11:22:46.734Z,4.10
2022-09-12T11:27:55.449Z,12.20
2022-09-12T11:33:26.640Z,5.90
2022-09-12T11:38:32.057Z,5.50
2022-09-12T11:43:43.903Z,4.80
2022-09-12T11:48:55.969Z,4.50
2022-09-12T11:54:35.786Z,3.30
2022-09-12T12:00:00.562Z,5.90
2022-09-12T12:10:42.382Z,3.70
2022-09-12T12:15:50.610Z,4.10
2022-09-12T12:20:55.811Z,3.30
2022-09-12T12:26:05.438Z,5.20
2022-09-12T12:31:11.230Z,3.40
2022-09-12T12:36:39.276Z,3.50
2022-09-12T12:41:45.666Z,4.20
2022-09-12T12:47:19.988Z,3.20
2022-09-12T12:52:25.615Z,2.70
2022-09-12T12:57:41.774Z,3.70
2022-09-12T13:03:06.734Z,2.50
2022-09-12T13:13:34.315Z,2.90
2022-09-12T13:19:08.737Z,5.10
2022-09-12T13:24:17.295Z,5.00
2022-09-12T13:29:28.336Z,4.50
2022-09-12T13:34:37.292Z,3.90
2022-09-12T13:45:15.986Z,3.90
2022-09-12T13:50:23.931Z,4.20
2022-09-12T13:55:34.338Z,3.00
2022-09-12T14:00:37.998Z,5.80
2022-09-12T14:05:45.073Z,3.80
2022-09-12T14:10:50.538Z,4.50
2022-09-12T14:15:55.876Z,4.50
2022-09-12T14:21:12.855Z,2.70
2022-09-12T14:26:17.868Z,3.10
2022-09-12T14:31:24.801Z,5.90
2022-09-12T14:36:31.213Z,5.10
2022-09-12T14:46:41.673Z,5.80
2022-09-12T14:51:51.710Z,3.60
2022-09-12T14:56:58.535Z,4.10
2022-09-12T15:02:22.407Z,3.70
2022-09-12T15:07:42.230Z,3.30
2022-09-12T15:12:45.205Z,2.70
2022-09-12T15:17:48.191Z,3.80
2022-09-12T15:22:52.342Z,3.30
2022-09-12T15:27:56.539Z,3.20
2022-09-12T15:33:00.199Z,3.70
2022-09-12T15:38:03.006Z,6.50
2022-09-12T15:43:06.225Z,7.10
2022-09-12T15:48:09.787Z,2.70
2022-09-12T15:53:17.156Z,3.80
2022-09-12T15:58:20.130Z,2.70
2022-09-12T16:03:26.531Z,3.00
2022-09-12T16:08:31.603Z,3.10
2022-09-12T16:13:34.389Z,2.90
2022-09-12T16:18:40.037Z,3.00
2022-09-12T16:23:47.222Z,3.50
2022-09-12T16:28:58.590Z,4.80
2022-09-12T16:34:01.325Z,7.10
2022-09-12T16:39:04.238Z,6.40
2022-09-12T16:44:08.172Z,5.90
2022-09-12T16:49:12.093Z,3.90
2022-09-12T16:54:15.804Z,7.20
2022-09-12T16:59:18.524Z,5.50
2022-09-12T17:04:23.558Z,9.70
2022-09-12T17:09:28.235Z,6.00
2022-09-12T17:14:31.474Z,6.70
2022-09-12T17:19:34.205Z,5.30
2022-09-12T17:24:36.980Z,7.00
2022-09-12T17:29:39.734Z,6.20
2022-09-12T17:34:42.588Z,7.50
2022-09-12T17:39:46.442Z,7.80
2022-09-12T17:44:49.816Z,6.60
2022-09-12T17:50:01.681Z,7.30
2022-09-12T17:55:13.543Z,7.10
2022-09-12T18:00:16.792Z,9.90
2022-09-12T18:05:19.560Z,11.30
2022-09-12T18:10:22.526Z,9.00
2022-09-12T18:15:27.113Z,9.20
2022-09-12T18:20:30.613Z,10.20
2022-09-12T18:25:33.429Z,11.80
2022-09-12T18:30:36.168Z,11.40
2022-09-12T18:35:39.119Z,8.70
2022-09-12T18:40:41.862Z,5.90
2022-09-12T18:45:44.629Z,7.10
2022-09-12T18:50:47.634Z,5.50
2022-09-12T18:55:50.590Z,5.90
2022-09-12T19:00:53.530Z,6.30
2022-09-12T19:05:56.985Z,7.30
2022-09-12T19:11:01.873Z,8.60
2022-09-12T19:16:06.698Z,10.30
2022-09-12T19:21:15.180Z,9.60
2022-09-12T19:26:20.531Z,8.90
2022-09-12T19:31:24.642Z,8.10
2022-09-12T19:36:44.245Z,9.40
2022-09-12T19:41:48.387Z,8.50
2022-09-12T19:46:51.247Z,10.90
2022-09-12T19:51:54.172Z,9.30
2022-09-12T19:56:56.991Z,10.40
2022-09-12T20:02:00.083Z,11.20
2022-09-12T20:07:02.953Z,10.50
2022-09-12T20:12:05.876Z,9.00
2022-09-12T20:17:08.961Z,10.80
2022-09-12T20:22:11.643Z,15.20
2022-09-12T20:27:15.301Z,10.90
2022-09-12T20:32:18.741Z,12.90
2022-09-12T20:37:21.510Z,13.10
2022-09-12T20:42:24.219Z,14.30
2022-09-12T20:47:27.001Z,16.90
2022-09-12T20:52:29.707Z,23.90
2022-09-12T20:57:32.464Z,42.40
2022-09-12T21:02:35.245Z,26.10
2022-09-12T21:07:38.109Z,21.10
2022-09-12T21:12:40.773Z,20.10
2022-09-12T21:17:43.851Z,13.60
2022-09-12T21:22:46.646Z,16.20
2022-09-12T21:27:49.407Z,15.60
2022-09-12T21:32:52.114Z,14.00
2022-09-12T21:37:54.832Z,16.40
2022-09-12T21:42:58.438Z,15.80
2022-09-12T21:48:01.628Z,15.30
2022-09-12T21:53:04.329Z,14.20
2022-09-12T21:58:07.060Z,11.70
2022-09-12T22:03:10.906Z,10.90
2022-09-12T22:08:13.640Z,13.10
2022-09-12T22:13:16.360Z,13.70
2022-09-12T22:18:19.549Z,14.30
2022-09-12T22:23:45.463Z,18.10
2022-09-12T22:28:49.267Z,10.70
2022-09-12T22:33:54.818Z,12.00
2022-09-12T22:38:57.849Z,14.20
2022-09-12T22:44:00.536Z,16.40
2022-09-12T22:49:04.879Z,13.50
2022-09-12T22:54:09.540Z,14.50
2022-09-12T22:59:12.244Z,11.10
2022-09-12T23:04:14.969Z,10.90
2022-09-12T23:09:18.097Z,10.50
2022-09-12T23:14:20.809Z,10.10
2022-09-12T23:19:23.577Z,13.70
2022-09-12T23:24:26.224Z,9.80
2022-09-12T23:29:28.892Z,9.20
2022-09-12T23:34:32.782Z,8.50
2022-09-12T23:39:35.517Z,9.50
2022-09-12T23:44:38.197Z,10.10
2022-09-12T23:49:41.015Z,11.80
2022-09-12T23:54:43.685Z,10.40
2022-09-12T23:59:46.413Z,9.60
